sensor_id;sensor_type;location;lat;lon;timestamp;temperature;humidity
52621;DHT22;38515;53.160;6.990;2023-08-07T00:02:08;14.40;99.90
52621;DHT22;38515;53.160;6.990;2023-08-07T00:04:34;14.30;99.90
52621;DHT22;38515;53.160;6.990;2023-08-07T00:06:59;14.20;99.90
52621;DHT22;38515;53.160;6.990;2023-08-07T00:09:25;14.30;99.90
52621;DHT22;38515;53.160;6.990;2023-08-07T00:11:51;14.20;99.90
52621;DHT22;38515;53.160;6.990;2023-08-07T00:14:17;14.20;99.90
52621;DHT22;38515;53.160;6.990;2023-08-07T00:16:43;14.20;99.90
52621;DHT22;38515;53.160;6.990;2023-08-07T00:19:08;14.20;99.90
52621;DHT22;38515;53.160;6.990;2023-08-07T00:21:34;14.20;99.90
52621;DHT22;38515;53.160;6.990;2023-08-07T00:24:01;14.20;99.90
52621;DHT22;38515;53.160;6.990;2023-08-07T00:26:27;14.10;99.90
52621;DHT22;38515;53.160;6.990;2023-08-07T00:28:53;14.10;99.90
52621;DHT22;38515;53.160;6.990;2023-08-07T00:31:19;14.10;99.90
52621;DHT22;38515;53.160;6.990;2023-08-07T00:33:45;14.10;99.90
52621;DHT22;38515;53.160;6.990;2023-08-07T00:36:11;14.20;99.90
52621;DHT22;38515;53.160;6.990;2023-08-07T00:38:37;14.10;99.90
52621;DHT22;38515;53.160;6.990;2023-08-07T00:41:03;14.30;99.90
52621;DHT22;38515;53.160;6.990;2023-08-07T00:43:29;14.20;99.90
52621;DHT22;38515;53.160;6.990;2023-08-07T00:45:55;14.30;99.90
52621;DHT22;38515;53.160;6.990;2023-08-07T00:48:21;14.30;99.90
52621;DHT22;38515;53.160;6.990;2023-08-07T00:50:48;14.40;99.90
52621;DHT22;38515;53.160;6.990;2023-08-07T00:53:14;14.50;99.90
52621;DHT22;38515;53.160;6.990;2023-08-07T00:55:43;14.60;99.90
52621;DHT22;38515;53.160;6.990;2023-08-07T00:58:10;14.60;99.90
52621;DHT22;38515;53.160;6.990;2023-08-07T01:00:36;14.70;99.90
52621;DHT22;38515;53.160;6.990;2023-08-07T01:03:05;14.70;99.90
52621;DHT22;38515;53.160;6.990;2023-08-07T01:05:32;14.70;99.90
52621;DHT22;38515;53.160;6.990;2023-08-07T01:07:58;14.60;99.90
52621;DHT22;38515;53.160;6.990;2023-08-07T01:13:31;14.70;99.90
52621;DHT22;38515;53.160;6.990;2023-08-07T01:16:02;14.70;99.90
52621;DHT22;38515;53.160;6.990;2023-08-07T01:18:34;14.80;99.90
52621;DHT22;38515;53.160;6.990;2023-08-07T01:21:01;14.60;99.90
52621;DHT22;38515;53.160;6.990;2023-08-07T01:23:28;14.70;99.90
52621;DHT22;38515;53.160;6.990;2023-08-07T01:25:53;14.70;99.90
52621;DHT22;38515;53.160;6.990;2023-08-07T01:28:27;14.70;99.90
52621;DHT22;38515;53.160;6.990;2023-08-07T01:30:59;14.70;99.90
52621;DHT22;38515;53.160;6.990;2023-08-07T01:33:29;14.70;99.90
52621;DHT22;38515;53.160;6.990;2023-08-07T01:35:58;14.80;99.90
52621;DHT22;38515;53.160;6.990;2023-08-07T01:38:26;14.70;99.90
52621;DHT22;38515;53.160;6.990;2023-08-07T01:40:53;14.70;99.90
52621;DHT22;38515;53.160;6.990;2023-08-07T01:43:19;14.70;99.90
52621;DHT22;38515;53.160;6.990;2023-08-07T01:45:45;14.70;99.90
52621;DHT22;38515;53.160;6.990;2023-08-07T01:48:12;14.60;99.90
52621;DHT22;38515;53.160;6.990;2023-08-07T01:50:38;14.60;99.90
52621;DHT22;38515;53.160;6.990;2023-08-07T01:53:05;14.70;99.90
52621;DHT22;38515;53.160;6.990;2023-08-07T01:55:34;14.60;99.90
52621;DHT22;38515;53.160;6.990;2023-08-07T01:58:00;14.60;99.90
52621;DHT22;38515;53.160;6.990;2023-08-07T02:00:26;14.60;99.90
52621;DHT22;38515;53.160;6.990;2023-08-07T02:02:51;14.70;99.90
52621;DHT22;38515;53.160;6.990;2023-08-07T02:05:17;14.60;99.90
52621;DHT22;38515;53.160;6.990;2023-08-07T02:07:44;14.60;99.90
52621;DHT22;38515;53.160;6.990;2023-08-07T02:10:12;14.50;99.90
52621;DHT22;38515;53.160;6.990;2023-08-07T02:12:38;14.50;99.90
52621;DHT22;38515;53.160;6.990;2023-08-07T02:15:05;14.50;99.90
52621;DHT22;38515;53.160;6.990;2023-08-07T02:17:31;14.50;99.90
52621;DHT22;38515;53.160;6.990;2023-08-07T02:19:58;14.40;99.90
52621;DHT22;38515;53.160;6.990;2023-08-07T02:22:24;14.40;99.90
52621;DHT22;38515;53.160;6.990;2023-08-07T02:24:50;14.40;99.90
52621;DHT22;38515;53.160;6.990;2023-08-07T02:27:16;14.30;99.90
52621;DHT22;38515;53.160;6.990;2023-08-07T02:29:42;14.30;99.90
52621;DHT22;38515;53.160;6.990;2023-08-07T02:32:08;14.20;99.90
52621;DHT22;38515;53.160;6.990;2023-08-07T02:34:34;14.20;99.90
52621;DHT22;38515;53.160;6.990;2023-08-07T02:36:59;14.10;99.90
52621;DHT22;38515;53.160;6.990;2023-08-07T02:39:25;14.00;99.90
52621;DHT22;38515;53.160;6.990;2023-08-07T02:41:51;13.90;99.90
52621;DHT22;38515;53.160;6.990;2023-08-07T02:44:17;13.90;99.90
52621;DHT22;38515;53.160;6.990;2023-08-07T02:46:44;13.80;99.90
52621;DHT22;38515;53.160;6.990;2023-08-07T02:49:10;13.80;99.90
52621;DHT22;38515;53.160;6.990;2023-08-07T02:51:35;13.60;99.90
52621;DHT22;38515;53.160;6.990;2023-08-07T02:54:01;13.60;99.90
52621;DHT22;38515;53.160;6.990;2023-08-07T02:56:27;13.50;99.90
52621;DHT22;38515;53.160;6.990;2023-08-07T02:58:53;13.50;99.90
52621;DHT22;38515;53.160;6.990;2023-08-07T03:01:19;13.50;99.90
52621;DHT22;38515;53.160;6.990;2023-08-07T03:03:46;13.40;99.90
52621;DHT22;38515;53.160;6.990;2023-08-07T03:06:12;13.40;99.90
52621;DHT22;38515;53.160;6.990;2023-08-07T03:08:38;13.40;99.90
52621;DHT22;38515;53.160;6.990;2023-08-07T03:11:04;13.40;99.90
52621;DHT22;38515;53.160;6.990;2023-08-07T03:13:30;13.30;99.90
52621;DHT22;38515;53.160;6.990;2023-08-07T03:16:03;13.40;99.90
52621;DHT22;38515;53.160;6.990;2023-08-07T03:18:29;13.40;99.90
52621;DHT22;38515;53.160;6.990;2023-08-07T03:20:56;13.50;99.90
52621;DHT22;38515;53.160;6.990;2023-08-07T03:23:26;13.50;99.90
52621;DHT22;38515;53.160;6.990;2023-08-07T03:26:02;13.60;99.90
52621;DHT22;38515;53.160;6.990;2023-08-07T03:28:28;13.70;99.90
52621;DHT22;38515;53.160;6.990;2023-08-07T03:30:54;13.70;99.90
52621;DHT22;38515;53.160;6.990;2023-08-07T03:33:19;13.80;99.90
52621;DHT22;38515;53.160;6.990;2023-08-07T03:35:45;13.70;99.90
52621;DHT22;38515;53.160;6.990;2023-08-07T03:38:11;13.80;99.90
52621;DHT22;38515;53.160;6.990;2023-08-07T03:40:37;13.70;99.90
52621;DHT22;38515;53.160;6.990;2023-08-07T03:43:03;13.80;99.90
52621;DHT22;38515;53.160;6.990;2023-08-07T03:45:29;13.80;99.90
52621;DHT22;38515;53.160;6.990;2023-08-07T03:47:54;13.80;99.90
52621;DHT22;38515;53.160;6.990;2023-08-07T03:50:20;13.70;99.90
52621;DHT22;38515;53.160;6.990;2023-08-07T03:52:46;13.80;99.90
52621;DHT22;38515;53.160;6.990;2023-08-07T03:55:15;13.70;99.90
52621;DHT22;38515;53.160;6.990;2023-08-07T03:57:41;13.60;99.90
52621;DHT22;38515;53.160;6.990;2023-08-07T04:00:07;13.70;99.90
52621;DHT22;38515;53.160;6.990;2023-08-07T04:02:34;13.70;99.90
52621;DHT22;38515;53.160;6.990;2023-08-07T04:05:00;13.60;99.90
52621;DHT22;38515;53.160;6.990;2023-08-07T04:07:26;13.60;99.90
52621;DHT22;38515;53.160;6.990;2023-08-07T04:09:51;13.60;99.90
52621;DHT22;38515;53.160;6.990;2023-08-07T04:12:17;13.70;99.90
52621;DHT22;38515;53.160;6.990;2023-08-07T04:14:43;13.60;99.90
52621;DHT22;38515;53.160;6.990;2023-08-07T04:17:09;13.70;99.90
52621;DHT22;38515;53.160;6.990;2023-08-07T04:19:35;13.70;99.90
52621;DHT22;38515;53.160;6.990;2023-08-07T04:22:01;13.80;99.90
52621;DHT22;38515;53.160;6.990;2023-08-07T04:24:27;13.90;99.90
52621;DHT22;38515;53.160;6.990;2023-08-07T04:26:52;13.80;99.90
52621;DHT22;38515;53.160;6.990;2023-08-07T04:29:19;14.00;99.90
52621;DHT22;38515;53.160;6.990;2023-08-07T04:31:44;14.00;99.90
52621;DHT22;38515;53.160;6.990;2023-08-07T04:34:10;14.10;99.90
52621;DHT22;38515;53.160;6.990;2023-08-07T04:36:36;14.10;99.90
52621;DHT22;38515;53.160;6.990;2023-08-07T04:39:02;14.20;99.90
52621;DHT22;38515;53.160;6.990;2023-08-07T04:41:28;14.20;99.90
52621;DHT22;38515;53.160;6.990;2023-08-07T04:43:54;14.10;99.90
52621;DHT22;38515;53.160;6.990;2023-08-07T04:46:20;14.20;99.90
52621;DHT22;38515;53.160;6.990;2023-08-07T04:48:46;14.30;99.90
52621;DHT22;38515;53.160;6.990;2023-08-07T04:51:13;14.20;99.90
52621;DHT22;38515;53.160;6.990;2023-08-07T04:53:39;14.20;99.90
52621;DHT22;38515;53.160;6.990;2023-08-07T04:56:05;14.20;99.90
52621;DHT22;38515;53.160;6.990;2023-08-07T04:58:31;14.30;99.90
52621;DHT22;38515;53.160;6.990;2023-08-07T05:00:57;14.20;99.90
52621;DHT22;38515;53.160;6.990;2023-08-07T05:03:24;14.20;99.90
52621;DHT22;38515;53.160;6.990;2023-08-07T05:05:50;14.10;99.90
52621;DHT22;38515;53.160;6.990;2023-08-07T05:08:16;14.30;99.90
52621;DHT22;38515;53.160;6.990;2023-08-07T05:10:42;14.20;99.90
52621;DHT22;38515;53.160;6.990;2023-08-07T05:13:08;14.20;99.90
52621;DHT22;38515;53.160;6.990;2023-08-07T05:15:34;14.20;99.90
52621;DHT22;38515;53.160;6.990;2023-08-07T05:18:00;14.20;99.90
52621;DHT22;38515;53.160;6.990;2023-08-07T05:20:26;14.20;99.90
52621;DHT22;38515;53.160;6.990;2023-08-07T05:22:51;14.40;99.90
52621;DHT22;38515;53.160;6.990;2023-08-07T05:25:17;14.30;99.90
52621;DHT22;38515;53.160;6.990;2023-08-07T05:27:44;14.40;99.90
52621;DHT22;38515;53.160;6.990;2023-08-07T05:30:11;14.40;99.90
52621;DHT22;38515;53.160;6.990;2023-08-07T05:32:37;14.50;99.90
52621;DHT22;38515;53.160;6.990;2023-08-07T05:35:07;14.60;99.90
52621;DHT22;38515;53.160;6.990;2023-08-07T05:37:34;14.50;99.90
52621;DHT22;38515;53.160;6.990;2023-08-07T05:40:00;14.60;99.90
52621;DHT22;38515;53.160;6.990;2023-08-07T05:42:27;14.60;99.90
52621;DHT22;38515;53.160;6.990;2023-08-07T05:44:53;14.70;99.90
52621;DHT22;38515;53.160;6.990;2023-08-07T05:47:19;14.70;99.90
52621;DHT22;38515;53.160;6.990;2023-08-07T05:49:44;14.80;99.90
52621;DHT22;38515;53.160;6.990;2023-08-07T05:52:10;14.80;99.90
52621;DHT22;38515;53.160;6.990;2023-08-07T05:54:36;14.80;99.90
52621;DHT22;38515;53.160;6.990;2023-08-07T05:57:02;14.80;99.90
52621;DHT22;38515;53.160;6.990;2023-08-07T05:59:28;14.70;99.90
52621;DHT22;38515;53.160;6.990;2023-08-07T06:01:55;14.70;99.90
52621;DHT22;38515;53.160;6.990;2023-08-07T06:04:21;14.70;99.90
52621;DHT22;38515;53.160;6.990;2023-08-07T06:06:50;14.80;99.90
52621;DHT22;38515;53.160;6.990;2023-08-07T06:09:16;14.80;99.90
52621;DHT22;38515;53.160;6.990;2023-08-07T06:11:42;14.70;99.90
52621;DHT22;38515;53.160;6.990;2023-08-07T06:14:08;15.00;99.90
52621;DHT22;38515;53.160;6.990;2023-08-07T06:16:34;15.20;99.90
52621;DHT22;38515;53.160;6.990;2023-08-07T06:19:00;15.30;99.90
52621;DHT22;38515;53.160;6.990;2023-08-07T06:21:25;15.40;99.90
52621;DHT22;38515;53.160;6.990;2023-08-07T06:23:54;15.30;99.90
52621;DHT22;38515;53.160;6.990;2023-08-07T06:26:20;15.10;99.90
52621;DHT22;38515;53.160;6.990;2023-08-07T06:28:46;14.70;99.90
52621;DHT22;38515;53.160;6.990;2023-08-07T06:31:12;14.50;99.90
52621;DHT22;38515;53.160;6.990;2023-08-07T06:33:38;14.30;99.90
52621;DHT22;38515;53.160;6.990;2023-08-07T06:36:06;14.20;99.90
52621;DHT22;38515;53.160;6.990;2023-08-07T06:38:32;14.10;99.90
52621;DHT22;38515;53.160;6.990;2023-08-07T06:40:58;14.20;99.90
52621;DHT22;38515;53.160;6.990;2023-08-07T06:43:24;14.20;99.90
52621;DHT22;38515;53.160;6.990;2023-08-07T06:45:50;14.10;99.90
52621;DHT22;38515;53.160;6.990;2023-08-07T06:48:19;14.10;99.90
52621;DHT22;38515;53.160;6.990;2023-08-07T06:50:48;14.30;99.90
52621;DHT22;38515;53.160;6.990;2023-08-07T06:53:15;14.30;99.90
52621;DHT22;38515;53.160;6.990;2023-08-07T06:55:42;14.60;99.90
52621;DHT22;38515;53.160;6.990;2023-08-07T06:58:08;14.90;99.90
52621;DHT22;38515;53.160;6.990;2023-08-07T07:00:35;15.20;99.90
52621;DHT22;38515;53.160;6.990;2023-08-07T07:03:02;15.50;99.90
52621;DHT22;38515;53.160;6.990;2023-08-07T07:05:28;15.60;99.90
52621;DHT22;38515;53.160;6.990;2023-08-07T07:07:54;15.50;99.90
52621;DHT22;38515;53.160;6.990;2023-08-07T07:10:20;15.30;99.90
52621;DHT22;38515;53.160;6.990;2023-08-07T07:12:46;15.10;99.90
52621;DHT22;38515;53.160;6.990;2023-08-07T07:15:12;14.90;99.90
52621;DHT22;38515;53.160;6.990;2023-08-07T07:17:38;14.80;99.90
52621;DHT22;38515;53.160;6.990;2023-08-07T07:20:05;14.80;99.90
52621;DHT22;38515;53.160;6.990;2023-08-07T07:22:31;14.80;99.90
52621;DHT22;38515;53.160;6.990;2023-08-07T07:24:57;14.80;99.90
52621;DHT22;38515;53.160;6.990;2023-08-07T07:27:23;14.80;99.90
52621;DHT22;38515;53.160;6.990;2023-08-07T07:29:52;14.80;99.90
52621;DHT22;38515;53.160;6.990;2023-08-07T07:32:18;14.60;99.90
52621;DHT22;38515;53.160;6.990;2023-08-07T07:34:43;14.50;99.90
52621;DHT22;38515;53.160;6.990;2023-08-07T07:37:10;14.30;99.90
52621;DHT22;38515;53.160;6.990;2023-08-07T07:39:36;14.30;99.90
52621;DHT22;38515;53.160;6.990;2023-08-07T07:42:02;14.40;99.90
52621;DHT22;38515;53.160;6.990;2023-08-07T07:44:30;14.60;99.90
52621;DHT22;38515;53.160;6.990;2023-08-07T07:46:56;14.80;99.90
52621;DHT22;38515;53.160;6.990;2023-08-07T07:49:21;14.80;99.90
52621;DHT22;38515;53.160;6.990;2023-08-07T07:51:47;15.00;99.90
52621;DHT22;38515;53.160;6.990;2023-08-07T07:54:15;15.10;99.90
52621;DHT22;38515;53.160;6.990;2023-08-07T07:56:44;15.10;99.90
52621;DHT22;38515;53.160;6.990;2023-08-07T07:59:10;15.30;99.90
52621;DHT22;38515;53.160;6.990;2023-08-07T08:01:36;15.50;99.90
52621;DHT22;38515;53.160;6.990;2023-08-07T08:04:02;15.60;99.90
52621;DHT22;38515;53.160;6.990;2023-08-07T08:06:28;15.80;99.90
52621;DHT22;38515;53.160;6.990;2023-08-07T08:08:53;15.80;99.90
52621;DHT22;38515;53.160;6.990;2023-08-07T08:11:19;15.80;99.90
52621;DHT22;38515;53.160;6.990;2023-08-07T08:13:45;15.80;99.90
52621;DHT22;38515;53.160;6.990;2023-08-07T08:16:11;15.70;99.90
52621;DHT22;38515;53.160;6.990;2023-08-07T08:18:37;15.80;99.90
52621;DHT22;38515;53.160;6.990;2023-08-07T08:21:03;15.80;99.90
52621;DHT22;38515;53.160;6.990;2023-08-07T08:23:29;15.70;99.90
52621;DHT22;38515;53.160;6.990;2023-08-07T08:25:55;15.70;99.90
52621;DHT22;38515;53.160;6.990;2023-08-07T08:28:20;15.70;99.90
52621;DHT22;38515;53.160;6.990;2023-08-07T08:30:48;15.50;99.90
52621;DHT22;38515;53.160;6.990;2023-08-07T08:33:14;15.50;99.90
52621;DHT22;38515;53.160;6.990;2023-08-07T08:35:40;15.40;99.90
52621;DHT22;38515;53.160;6.990;2023-08-07T08:38:07;15.40;99.90
52621;DHT22;38515;53.160;6.990;2023-08-07T08:40:34;15.40;99.90
52621;DHT22;38515;53.160;6.990;2023-08-07T08:43:00;15.50;99.90
52621;DHT22;38515;53.160;6.990;2023-08-07T08:45:27;15.60;99.90
52621;DHT22;38515;53.160;6.990;2023-08-07T08:48:01;15.70;99.90
52621;DHT22;38515;53.160;6.990;2023-08-07T08:50:28;15.80;99.90
52621;DHT22;38515;53.160;6.990;2023-08-07T08:52:56;15.90;99.90
52621;DHT22;38515;53.160;6.990;2023-08-07T08:55:22;16.00;99.90
52621;DHT22;38515;53.160;6.990;2023-08-07T08:57:49;16.20;99.90
52621;DHT22;38515;53.160;6.990;2023-08-07T09:00:16;16.30;99.90
52621;DHT22;38515;53.160;6.990;2023-08-07T09:02:50;16.40;99.90
52621;DHT22;38515;53.160;6.990;2023-08-07T09:05:18;16.40;99.90
52621;DHT22;38515;53.160;6.990;2023-08-07T09:07:46;16.40;99.90
52621;DHT22;38515;53.160;6.990;2023-08-07T09:10:15;16.60;99.90
52621;DHT22;38515;53.160;6.990;2023-08-07T09:13:03;16.80;99.90
52621;DHT22;38515;53.160;6.990;2023-08-07T09:15:32;16.70;99.90
52621;DHT22;38515;53.160;6.990;2023-08-07T09:17:59;16.50;99.90
52621;DHT22;38515;53.160;6.990;2023-08-07T09:20:26;16.40;99.90
52621;DHT22;38515;53.160;6.990;2023-08-07T09:22:52;16.40;99.90
52621;DHT22;38515;53.160;6.990;2023-08-07T09:25:28;16.60;99.90
52621;DHT22;38515;53.160;6.990;2023-08-07T09:27:55;16.80;99.90
52621;DHT22;38515;53.160;6.990;2023-08-07T09:30:29;17.00;99.90
52621;DHT22;38515;53.160;6.990;2023-08-07T09:32:59;17.00;99.90
52621;DHT22;38515;53.160;6.990;2023-08-07T09:35:25;16.80;99.90
52621;DHT22;38515;53.160;6.990;2023-08-07T09:37:51;16.60;99.90
52621;DHT22;38515;53.160;6.990;2023-08-07T09:40:20;16.40;99.90
52621;DHT22;38515;53.160;6.990;2023-08-07T09:42:53;16.30;99.90
52621;DHT22;38515;53.160;6.990;2023-08-07T09:45:24;16.30;99.90
52621;DHT22;38515;53.160;6.990;2023-08-07T09:48:05;16.20;99.90
52621;DHT22;38515;53.160;6.990;2023-08-07T09:50:34;16.10;99.90
52621;DHT22;38515;53.160;6.990;2023-08-07T09:53:00;15.90;99.90
52621;DHT22;38515;53.160;6.990;2023-08-07T09:55:32;16.00;99.90
52621;DHT22;38515;53.160;6.990;2023-08-07T09:58:03;16.20;99.90
52621;DHT22;38515;53.160;6.990;2023-08-07T10:00:35;16.50;99.90
52621;DHT22;38515;53.160;6.990;2023-08-07T10:03:02;16.70;99.90
52621;DHT22;38515;53.160;6.990;2023-08-07T10:05:28;16.70;99.90
52621;DHT22;38515;53.160;6.990;2023-08-07T10:07:55;16.60;99.90
52621;DHT22;38515;53.160;6.990;2023-08-07T10:10:21;16.60;99.90
52621;DHT22;38515;53.160;6.990;2023-08-07T10:12:48;16.70;99.90
52621;DHT22;38515;53.160;6.990;2023-08-07T10:15:15;17.60;99.90
52621;DHT22;38515;53.160;6.990;2023-08-07T10:17:41;17.30;99.90
52621;DHT22;38515;53.160;6.990;2023-08-07T10:20:11;17.30;99.90
52621;DHT22;38515;53.160;6.990;2023-08-07T10:22:38;17.20;99.90
52621;DHT22;38515;53.160;6.990;2023-08-07T10:25:06;17.00;99.90
52621;DHT22;38515;53.160;6.990;2023-08-07T10:27:35;16.70;99.90
52621;DHT22;38515;53.160;6.990;2023-08-07T10:30:05;16.60;99.90
52621;DHT22;38515;53.160;6.990;2023-08-07T10:32:33;16.50;99.90
52621;DHT22;38515;53.160;6.990;2023-08-07T10:35:03;16.40;99.90
52621;DHT22;38515;53.160;6.990;2023-08-07T10:37:44;16.30;99.90
52621;DHT22;38515;53.160;6.990;2023-08-07T10:40:12;16.40;99.90
52621;DHT22;38515;53.160;6.990;2023-08-07T10:43:11;16.50;99.90
52621;DHT22;38515;53.160;6.990;2023-08-07T10:45:37;16.70;99.90
52621;DHT22;38515;53.160;6.990;2023-08-07T10:48:11;16.70;99.90
52621;DHT22;38515;53.160;6.990;2023-08-07T10:53:31;16.70;99.90
52621;DHT22;38515;53.160;6.990;2023-08-07T10:56:19;16.60;99.90
52621;DHT22;38515;53.160;6.990;2023-08-07T10:58:55;16.60;99.90
52621;DHT22;38515;53.160;6.990;2023-08-07T11:03:55;16.40;99.90
52621;DHT22;38515;53.160;6.990;2023-08-07T11:06:23;16.30;99.90
52621;DHT22;38515;53.160;6.990;2023-08-07T11:08:50;16.10;99.90
52621;DHT22;38515;53.160;6.990;2023-08-07T11:11:17;16.10;99.90
52621;DHT22;38515;53.160;6.990;2023-08-07T11:13:43;16.10;99.90
52621;DHT22;38515;53.160;6.990;2023-08-07T11:16:09;16.10;99.90
52621;DHT22;38515;53.160;6.990;2023-08-07T11:18:35;16.30;99.90
52621;DHT22;38515;53.160;6.990;2023-08-07T11:21:07;16.50;99.90
52621;DHT22;38515;53.160;6.990;2023-08-07T11:23:33;16.60;99.90
52621;DHT22;38515;53.160;6.990;2023-08-07T11:25:59;16.80;99.90
52621;DHT22;38515;53.160;6.990;2023-08-07T11:28:25;17.00;99.90
52621;DHT22;38515;53.160;6.990;2023-08-07T11:30:52;17.30;99.90
52621;DHT22;38515;53.160;6.990;2023-08-07T11:33:22;17.40;99.90
52621;DHT22;38515;53.160;6.990;2023-08-07T11:35:49;17.50;99.90
52621;DHT22;38515;53.160;6.990;2023-08-07T11:38:34;17.60;99.90
52621;DHT22;38515;53.160;6.990;2023-08-07T11:41:02;17.40;99.90
52621;DHT22;38515;53.160;6.990;2023-08-07T11:43:29;17.30;99.90
52621;DHT22;38515;53.160;6.990;2023-08-07T11:45:57;17.10;99.90
52621;DHT22;38515;53.160;6.990;2023-08-07T11:48:25;16.90;99.90
52621;DHT22;38515;53.160;6.990;2023-08-07T11:50:52;16.70;99.90
52621;DHT22;38515;53.160;6.990;2023-08-07T11:53:19;16.60;99.90
52621;DHT22;38515;53.160;6.990;2023-08-07T11:58:19;16.80;99.90
52621;DHT22;38515;53.160;6.990;2023-08-07T12:00:46;16.80;99.90
52621;DHT22;38515;53.160;6.990;2023-08-07T12:03:27;16.90;99.90
52621;DHT22;38515;53.160;6.990;2023-08-07T12:05:55;17.00;99.90
52621;DHT22;38515;53.160;6.990;2023-08-07T12:08:22;17.00;99.90
52621;DHT22;38515;53.160;6.990;2023-08-07T12:10:54;17.00;99.90
52621;DHT22;38515;53.160;6.990;2023-08-07T12:13:24;17.10;99.90
52621;DHT22;38515;53.160;6.990;2023-08-07T12:15:53;17.20;99.90
52621;DHT22;38515;53.160;6.990;2023-08-07T12:18:20;17.00;99.90
52621;DHT22;38515;53.160;6.990;2023-08-07T12:20:53;17.10;99.90
52621;DHT22;38515;53.160;6.990;2023-08-07T12:23:22;17.10;99.90
52621;DHT22;38515;53.160;6.990;2023-08-07T12:25:49;17.20;99.90
52621;DHT22;38515;53.160;6.990;2023-08-07T12:28:16;17.40;99.90
52621;DHT22;38515;53.160;6.990;2023-08-07T12:30:45;17.50;99.90
52621;DHT22;38515;53.160;6.990;2023-08-07T12:33:12;17.60;99.90
52621;DHT22;38515;53.160;6.990;2023-08-07T12:35:38;17.40;99.90
52621;DHT22;38515;53.160;6.990;2023-08-07T12:38:04;16.80;99.90
52621;DHT22;38515;53.160;6.990;2023-08-07T12:40:34;17.00;99.90
52621;DHT22;38515;53.160;6.990;2023-08-07T12:43:05;16.80;99.90
52621;DHT22;38515;53.160;6.990;2023-08-07T12:45:31;16.80;99.90
52621;DHT22;38515;53.160;6.990;2023-08-07T12:47:58;16.80;99.90
52621;DHT22;38515;53.160;6.990;2023-08-07T12:50:24;16.80;99.90
52621;DHT22;38515;53.160;6.990;2023-08-07T12:52:50;16.90;99.90
52621;DHT22;38515;53.160;6.990;2023-08-07T12:55:16;17.00;99.90
52621;DHT22;38515;53.160;6.990;2023-08-07T12:57:43;17.10;99.90
52621;DHT22;38515;53.160;6.990;2023-08-07T13:00:10;17.10;99.90
52621;DHT22;38515;53.160;6.990;2023-08-07T13:02:42;17.00;99.90
52621;DHT22;38515;53.160;6.990;2023-08-07T13:05:10;17.20;99.90
52621;DHT22;38515;53.160;6.990;2023-08-07T13:07:37;17.30;99.90
52621;DHT22;38515;53.160;6.990;2023-08-07T13:10:05;17.40;99.90
52621;DHT22;38515;53.160;6.990;2023-08-07T13:12:35;17.60;99.90
52621;DHT22;38515;53.160;6.990;2023-08-07T13:15:02;17.70;99.90
52621;DHT22;38515;53.160;6.990;2023-08-07T13:17:28;17.70;99.90
52621;DHT22;38515;53.160;6.990;2023-08-07T13:19:54;17.70;99.90
52621;DHT22;38515;53.160;6.990;2023-08-07T13:22:20;17.60;99.90
52621;DHT22;38515;53.160;6.990;2023-08-07T13:24:46;17.40;99.90
52621;DHT22;38515;53.160;6.990;2023-08-07T13:27:12;17.30;99.90
52621;DHT22;38515;53.160;6.990;2023-08-07T13:29:38;17.40;99.90
52621;DHT22;38515;53.160;6.990;2023-08-07T13:32:05;17.50;99.90
52621;DHT22;38515;53.160;6.990;2023-08-07T13:34:37;17.50;99.90
52621;DHT22;38515;53.160;6.990;2023-08-07T13:37:07;17.50;99.90
52621;DHT22;38515;53.160;6.990;2023-08-07T13:39:33;17.30;99.90
52621;DHT22;38515;53.160;6.990;2023-08-07T13:41:59;17.30;99.90
52621;DHT22;38515;53.160;6.990;2023-08-07T13:44:28;17.30;99.90
52621;DHT22;38515;53.160;6.990;2023-08-07T13:46:54;17.20;99.90
52621;DHT22;38515;53.160;6.990;2023-08-07T13:49:22;17.20;99.90
52621;DHT22;38515;53.160;6.990;2023-08-07T13:51:49;17.30;99.90
52621;DHT22;38515;53.160;6.990;2023-08-07T13:54:16;17.30;99.90
52621;DHT22;38515;53.160;6.990;2023-08-07T13:56:41;17.40;99.90
52621;DHT22;38515;53.160;6.990;2023-08-07T13:59:07;17.40;99.90
52621;DHT22;38515;53.160;6.990;2023-08-07T14:01:35;17.20;99.90
52621;DHT22;38515;53.160;6.990;2023-08-07T14:04:05;17.10;99.90
52621;DHT22;38515;53.160;6.990;2023-08-07T14:06:30;17.00;99.90
52621;DHT22;38515;53.160;6.990;2023-08-07T14:08:57;16.90;99.90
52621;DHT22;38515;53.160;6.990;2023-08-07T14:11:22;16.90;99.90
52621;DHT22;38515;53.160;6.990;2023-08-07T14:13:53;17.00;99.90
52621;DHT22;38515;53.160;6.990;2023-08-07T14:16:19;17.10;99.90
52621;DHT22;38515;53.160;6.990;2023-08-07T14:18:45;17.20;99.90
52621;DHT22;38515;53.160;6.990;2023-08-07T14:21:10;17.30;99.90
52621;DHT22;38515;53.160;6.990;2023-08-07T14:23:37;17.30;99.90
52621;DHT22;38515;53.160;6.990;2023-08-07T14:26:02;17.30;99.90
52621;DHT22;38515;53.160;6.990;2023-08-07T14:28:28;17.20;99.90
52621;DHT22;38515;53.160;6.990;2023-08-07T14:30:57;17.20;99.90
52621;DHT22;38515;53.160;6.990;2023-08-07T14:33:24;17.10;99.90
52621;DHT22;38515;53.160;6.990;2023-08-07T14:35:50;17.10;99.90
52621;DHT22;38515;53.160;6.990;2023-08-07T14:38:16;17.10;99.90
52621;DHT22;38515;53.160;6.990;2023-08-07T14:40:42;17.00;99.90
52621;DHT22;38515;53.160;6.990;2023-08-07T14:43:09;17.10;99.90
52621;DHT22;38515;53.160;6.990;2023-08-07T14:45:36;17.20;99.90
52621;DHT22;38515;53.160;6.990;2023-08-07T14:48:03;17.30;99.90
52621;DHT22;38515;53.160;6.990;2023-08-07T14:50:34;17.20;99.90
52621;DHT22;38515;53.160;6.990;2023-08-07T14:53:09;17.20;99.90
52621;DHT22;38515;53.160;6.990;2023-08-07T14:55:35;17.00;99.90
52621;DHT22;38515;53.160;6.990;2023-08-07T14:58:01;16.80;99.90
52621;DHT22;38515;53.160;6.990;2023-08-07T15:00:27;16.80;99.90
52621;DHT22;38515;53.160;6.990;2023-08-07T15:02:52;16.90;99.90
52621;DHT22;38515;53.160;6.990;2023-08-07T15:05:18;16.90;99.90
52621;DHT22;38515;53.160;6.990;2023-08-07T15:07:49;16.80;99.90
52621;DHT22;38515;53.160;6.990;2023-08-07T15:10:15;16.80;99.90
52621;DHT22;38515;53.160;6.990;2023-08-07T15:12:40;16.80;99.90
52621;DHT22;38515;53.160;6.990;2023-08-07T15:15:07;16.90;99.90
52621;DHT22;38515;53.160;6.990;2023-08-07T15:17:33;17.00;99.90
52621;DHT22;38515;53.160;6.990;2023-08-07T15:19:58;17.20;99.90
52621;DHT22;38515;53.160;6.990;2023-08-07T15:22:24;17.50;99.90
52621;DHT22;38515;53.160;6.990;2023-08-07T15:24:50;17.80;99.90
52621;DHT22;38515;53.160;6.990;2023-08-07T15:27:16;17.80;99.90
52621;DHT22;38515;53.160;6.990;2023-08-07T15:29:44;17.70;99.90
52621;DHT22;38515;53.160;6.990;2023-08-07T15:32:12;17.40;99.90
52621;DHT22;38515;53.160;6.990;2023-08-07T15:34:44;17.40;99.90
52621;DHT22;38515;53.160;6.990;2023-08-07T15:37:12;17.30;99.90
52621;DHT22;38515;53.160;6.990;2023-08-07T15:39:41;17.00;99.90
52621;DHT22;38515;53.160;6.990;2023-08-07T15:42:07;16.80;99.90